Time;durP1;ratioP1;P1;durP2;ratioP2;P2;SDS_P1;SDS_P2;PMS_P1;PMS_P2;Temp;Humidity;BMP_temperature;BMP_pressure;BME280_temperature;BME280_humidity;BME280_pressure;Samples;Min_cycle;Max_cycle;Signal;HPM_P1;HPM_P2
2023/04/24 00:02:19;;;;;;;5.18;4.03;;;;;;;19.29;35.38;98804.22;4492502;31;33198;-60
2023/04/24 00:04:47;;;;;;;7.82;3.47;;;;;;;19.34;35.38;98806.38;4487972;31;33719;-60
2023/04/24 00:07:16;;;;;;;4.78;3.03;;;;;;;19.25;35.62;98803.78;4486236;31;33908;-60
2023/04/24 00:09:44;;;;;;;5.07;3.20;;;;;;;19.21;35.83;98804.37;4490878;31;33830;-62
2023/04/24 00:12:12;;;;;;;5.68;3.70;;;;;;;19.14;35.93;98800.75;4488233;31;33245;-61
2023/04/24 00:14:39;;;;;;;3.97;2.83;;;;;;;19.09;36.23;98801.31;4484440;31;34955;-62
2023/04/24 00:17:07;;;;;;;7.50;4.20;;;;;;;19.09;36.33;98796.72;4490138;31;35559;-63
2023/04/24 00:19:35;;;;;;;4.60;3.33;;;;;;;18.71;37.12;98793.34;4486541;31;34641;-62
2023/04/24 00:22:03;;;;;;;5.57;3.10;;;;;;;19.08;37.42;98796.94;4482641;31;31990;-63
2023/04/24 00:24:31;;;;;;;6.35;3.35;;;;;;;18.26;39.46;98795.25;4487826;31;33870;-63
2023/04/24 00:27:00;;;;;;;3.65;3.17;;;;;;;17.91;41.60;98802.25;4489977;31;35022;-63
2023/04/24 00:29:28;;;;;;;6.70;3.78;;;;;;;18.45;39.70;98793.00;4497055;31;32717;-63
2023/04/24 00:31:55;;;;;;;6.12;3.90;;;;;;;18.40;39.39;98788.19;4491120;31;33425;-63
2023/04/24 00:34:24;;;;;;;4.70;2.65;;;;;;;17.32;41.26;98791.25;4485856;31;33433;-63
2023/04/24 00:36:52;;;;;;;4.40;2.72;;;;;;;17.63;40.31;98785.75;4490231;31;34050;-62
2023/04/24 00:39:19;;;;;;;18.83;3.92;;;;;;;17.54;40.98;98774.16;4493097;31;35125;-63
2023/04/24 00:41:47;;;;;;;8.00;3.40;;;;;;;16.82;42.44;98774.53;4493070;31;33292;-62
2023/04/24 00:44:15;;;;;;;8.15;3.70;;;;;;;17.37;41.52;98772.63;4490596;31;32474;-62
2023/04/24 00:46:43;;;;;;;5.07;3.25;;;;;;;17.60;40.65;98775.28;4487952;31;34707;-62
2023/04/24 00:49:11;;;;;;;5.95;2.65;;;;;;;18.26;39.52;98768.16;4489043;31;34629;-64
2023/04/24 00:51:40;;;;;;;8.23;4.37;;;;;;;18.42;39.31;98767.13;4481366;31;33454;-63
2023/04/24 00:54:08;;;;;;;4.65;2.92;;;;;;;17.51;40.95;98770.97;4489162;31;34857;-63
2023/04/24 00:56:35;;;;;;;5.95;3.00;;;;;;;17.72;40.80;98772.97;4491278;31;35009;-63
2023/04/24 00:59:04;;;;;;;5.93;3.17;;;;;;;17.09;41.90;98775.03;4490145;31;33800;-64
2023/04/24 01:01:32;;;;;;;4.25;2.85;;;;;;;17.36;41.44;98760.94;4491026;31;33266;-63
2023/04/24 01:04:00;;;;;;;3.30;2.53;;;;;;;17.81;40.36;98761.91;4493197;31;33573;-62
2023/04/24 01:06:30;;;;;;;8.82;4.12;;;;;;;17.73;40.70;98763.84;4487868;31;32336;-63
2023/04/24 01:08:59;;;;;;;4.53;3.17;;;;;;;16.66;42.87;98766.47;4495655;31;32050;-63
2023/04/24 01:11:29;;;;;;;7.80;2.87;;;;;;;17.26;41.73;98767.63;4486807;31;33300;-64
2023/04/24 01:13:57;;;;;;;4.55;2.78;;;;;;;17.79;40.54;98758.56;4490654;31;32404;-64
2023/04/24 01:16:24;;;;;;;10.73;3.30;;;;;;;17.79;40.66;98760.44;4489016;31;35314;-63
2023/04/24 01:18:54;;;;;;;5.62;3.75;;;;;;;17.12;41.85;98751.19;4484008;31;33647;-64
2023/04/24 01:21:23;;;;;;;3.55;2.60;;;;;;;16.89;42.69;98745.78;4482357;31;33421;-63
2023/04/24 01:23:51;;;;;;;4.12;2.55;;;;;;;17.31;42.49;98735.50;4485369;31;33866;-63
2023/04/24 01:26:19;;;;;;;3.17;2.15;;;;;;;16.92;43.66;98734.59;4494070;31;32884;-64
2023/04/24 01:28:47;;;;;;;5.55;2.78;;;;;;;16.51;44.93;98728.59;4493193;31;33854;-62
2023/04/24 01:31:15;;;;;;;3.67;2.80;;;;;;;16.73;44.69;98730.47;4495163;31;33418;-63
2023/04/24 01:33:43;;;;;;;4.47;2.85;;;;;;;17.58;42.65;98734.03;4490883;31;33511;-64
2023/04/24 01:36:11;;;;;;;4.18;2.30;;;;;;;17.44;43.25;98724.88;4487146;31;33964;-63
2023/04/24 01:38:39;;;;;;;5.75;3.12;;;;;;;17.49;43.54;98717.03;4491422;31;34747;-63
2023/04/24 01:41:06;;;;;;;5.72;3.62;;;;;;;17.65;43.20;98721.44;4481077;31;34574;-64
2023/04/24 01:43:34;;;;;;;4.20;3.75;;;;;;;17.60;44.06;98718.47;4491684;31;33691;-62
2023/04/24 01:46:01;;;;;;;4.90;3.12;;;;;;;17.88;43.29;98714.16;4492929;31;34080;-63
2023/04/24 01:48:30;;;;;;;6.40;3.40;;;;;;;17.89;43.53;98715.81;4488622;31;34930;-62
2023/04/24 01:50:57;;;;;;;8.57;3.72;;;;;;;17.80;44.07;98721.50;4494268;31;32216;-63
2023/04/24 01:53:24;;;;;;;4.15;3.15;;;;;;;18.06;43.45;98718.34;4485862;31;35116;-63
2023/04/24 01:55:52;;;;;;;8.40;5.03;;;;;;;17.42;44.50;98695.31;4485030;31;34773;-62
2023/04/24 01:58:20;;;;;;;8.77;4.18;;;;;;;17.25;45.11;98695.66;4486815;31;33905;-63
2023/04/24 02:00:47;;;;;;;5.25;3.22;;;;;;;16.53;47.24;98694.97;4489549;31;33585;-64
2023/04/24 02:03:15;;;;;;;6.18;3.85;;;;;;;16.39;47.55;98686.78;4490420;31;34904;-62
2023/04/24 02:05:46;;;;;;;4.53;2.95;;;;;;;16.42;47.39;98689.97;4484276;31;34624;-63
2023/04/24 02:08:13;;;;;;;5.03;2.90;;;;;;;16.36;47.94;98682.56;4481818;31;33178;-63
2023/04/24 02:10:41;;;;;;;6.47;2.90;;;;;;;16.29;48.36;98687.00;4491782;31;32930;-62
2023/04/24 02:13:09;;;;;;;4.07;2.37;;;;;;;16.12;48.58;98678.16;4494482;31;33777;-62
2023/04/24 02:15:36;;;;;;;5.28;3.25;;;;;;;16.55;47.79;98683.97;4494192;31;34858;-62
2023/04/24 02:18:04;;;;;;;4.40;3.15;;;;;;;15.84;49.84;98680.47;4491596;31;33757;-61
2023/04/24 02:20:33;;;;;;;6.60;3.85;;;;;;;16.74;47.72;98680.81;4489862;31;34735;-61
2023/04/24 02:23:01;;;;;;;4.93;3.25;;;;;;;16.60;48.50;98675.37;4487577;31;33573;-62
2023/04/24 02:25:29;;;;;;;11.70;4.22;;;;;;;16.92;47.62;98674.31;4485565;31;33913;-62
2023/04/24 02:27:56;;;;;;;5.80;1.77;;;;;;;16.87;48.11;98688.34;4494329;31;33393;-62
2023/04/24 02:30:24;;;;;;;3.90;3.08;;;;;;;17.37;47.06;98689.63;4483112;31;33850;-62
2023/04/24 02:32:51;;;;;;;5.90;3.58;;;;;;;17.17;47.71;98681.19;4487566;31;34687;-61
2023/04/24 02:35:19;;;;;;;1.80;1.58;;;;;;;17.62;46.65;98670.41;4490528;31;33856;-62
2023/04/24 02:37:47;;;;;;;4.12;3.20;;;;;;;17.33;47.18;98665.81;4489774;31;33783;-61
2023/04/24 02:40:14;;;;;;;4.70;2.90;;;;;;;17.28;47.32;98669.09;4489916;31;33193;-62
2023/04/24 02:42:42;;;;;;;7.80;3.33;;;;;;;17.68;46.42;98669.66;4493124;31;32237;-63
2023/04/24 02:45:10;;;;;;;6.30;2.87;;;;;;;17.44;47.04;98674.31;4489208;31;33869;-62
2023/04/24 02:47:37;;;;;;;4.05;2.67;;;;;;;17.75;46.11;98665.19;4490597;31;33729;-68
2023/04/24 02:50:06;;;;;;;4.80;2.87;;;;;;;17.73;46.03;98669.97;4480358;31;34486;-63
2023/04/24 02:52:33;;;;;;;5.57;3.00;;;;;;;17.64;46.24;98663.78;4491181;31;35167;-64
2023/04/24 02:55:01;;;;;;;4.87;2.75;;;;;;;17.64;46.37;98660.25;4485986;31;33826;-64
2023/04/24 02:57:29;;;;;;;3.50;2.30;;;;;;;17.61;46.76;98663.34;4493950;31;33428;-64
2023/04/24 02:59:56;;;;;;;8.20;3.17;;;;;;;17.90;45.80;98660.63;4485593;31;33259;-64
2023/04/24 03:02:23;;;;;;;7.60;3.30;;;;;;;18.02;45.62;98657.47;4488093;31;35849;-64
2023/04/24 03:04:51;;;;;;;5.35;3.78;;;;;;;17.88;45.86;98649.19;4495502;31;33768;-63
2023/04/24 03:07:20;;;;;;;5.00;3.90;;;;;;;17.33;47.42;98649.59;4485014;31;34319;-63
2023/04/24 03:09:48;;;;;;;6.20;3.20;;;;;;;17.53;46.81;98645.34;4496803;31;33573;-64
2023/04/24 03:12:17;;;;;;;6.28;3.33;;;;;;;17.50;46.69;98644.87;4491090;31;34002;-64
2023/04/24 03:14:45;;;;;;;2.75;2.50;;;;;;;17.34;47.26;98645.88;4492387;31;34111;-60
2023/04/24 03:17:12;;;;;;;7.22;3.37;;;;;;;17.72;46.16;98649.34;4485967;31;34970;-60
2023/04/24 03:19:40;;;;;;;4.12;3.25;;;;;;;17.87;45.88;98646.66;4483205;31;33334;-60
2023/04/24 03:22:09;;;;;;;3.67;2.12;;;;;;;17.68;46.68;98642.59;4490944;31;33734;-60
2023/04/24 03:24:36;;;;;;;8.35;3.45;;;;;;;17.42;47.67;98646.63;4495553;31;32669;-60
2023/04/24 03:27:04;;;;;;;7.05;2.87;;;;;;;17.52;47.37;98648.22;4495888;31;34243;-60
2023/04/24 03:29:32;;;;;;;4.37;3.00;;;;;;;17.58;47.36;98647.47;4489603;31;33270;-60
2023/04/24 03:32:00;;;;;;;6.05;4.53;;;;;;;17.81;46.86;98650.94;4490825;31;35387;-63
2023/04/24 03:34:28;;;;;;;5.72;3.12;;;;;;;17.70;47.01;98651.41;4491871;31;35537;-62
2023/04/24 03:36:56;;;;;;;3.45;2.70;;;;;;;17.75;47.08;98642.69;4496344;31;34851;-61
2023/04/24 03:39:25;;;;;;;4.90;2.42;;;;;;;17.74;47.09;98638.31;4495198;31;33800;-62
2023/04/24 03:41:53;;;;;;;3.47;2.50;;;;;;;17.60;47.59;98634.59;4496102;31;34887;-62
2023/04/24 03:44:21;;;;;;;6.28;3.33;;;;;;;17.22;48.71;98635.50;4496610;31;35265;-63
2023/04/24 03:46:48;;;;;;;6.28;3.65;;;;;;;17.35;48.29;98625.91;4486834;31;34081;-63
2023/04/24 03:49:16;;;;;;;4.22;2.45;;;;;;;17.15;48.61;98631.03;4495803;31;33731;-63
2023/04/24 03:51:45;;;;;;;7.85;4.22;;;;;;;17.16;48.54;98621.87;4488910;31;33784;-62
2023/04/24 03:54:13;;;;;;;16.55;4.70;;;;;;;17.24;48.08;98624.50;4494909;31;32847;-62
2023/04/24 03:56:41;;;;;;;5.12;3.35;;;;;;;17.11;48.52;98624.28;4490563;31;32904;-63
2023/04/24 03:59:09;;;;;;;5.45;3.87;;;;;;;17.14;48.34;98624.78;4494333;31;32285;-61
2023/04/24 04:01:37;;;;;;;24.45;4.70;;;;;;;17.19;48.32;98629.63;4489885;31;32135;-62
2023/04/24 04:04:06;;;;;;;5.65;3.17;;;;;;;17.32;48.12;98640.62;4491331;31;32763;-61
2023/04/24 04:06:36;;;;;;;4.35;2.90;;;;;;;16.76;49.43;98643.69;4487605;31;32406;-61
2023/04/24 04:09:03;;;;;;;5.10;3.58;;;;;;;17.05;48.94;98643.97;4483295;31;33570;-62
2023/04/24 04:11:31;;;;;;;6.47;3.65;;;;;;;17.27;48.61;98636.81;4482748;31;34663;-62
2023/04/24 04:13:59;;;;;;;6.45;3.80;;;;;;;17.12;49.38;98629.53;4495350;31;33062;-62
2023/04/24 04:16:26;;;;;;;6.03;4.18;;;;;;;16.95;50.35;98626.12;4486111;31;33989;-63
2023/04/24 04:18:55;;;;;;;5.40;3.42;;;;;;;17.11;50.05;98635.09;4494476;31;33588;-63
2023/04/24 04:21:23;;;;;;;5.07;3.55;;;;;;;17.12;50.26;98645.75;4491184;31;33837;-68
2023/04/24 04:23:51;;;;;;;9.43;4.55;;;;;;;16.94;50.60;98643.34;4493086;31;34024;-62
2023/04/24 04:26:20;;;;;;;5.07;2.65;;;;;;;17.11;49.85;98640.50;4483925;31;34196;-61
2023/04/24 04:28:49;;;;;;;2.80;2.25;;;;;;;17.26;49.59;98640.53;4492126;31;33819;-60
2023/04/24 04:31:17;;;;;;;4.35;3.30;;;;;;;16.90;50.41;98649.31;4488554;31;33708;-61
2023/04/24 04:33:45;;;;;;;5.47;4.20;;;;;;;17.15;49.56;98641.84;4491368;31;33960;-60
2023/04/24 04:36:13;;;;;;;5.47;3.25;;;;;;;16.87;50.07;98639.72;4487649;31;33615;-60
2023/04/24 04:38:42;;;;;;;4.85;3.42;;;;;;;16.62;51.05;98639.03;4497066;31;33341;-61
2023/04/24 04:41:11;;;;;;;8.10;4.32;;;;;;;16.48;51.37;98634.41;4486782;31;33142;-61
2023/04/24 04:43:40;;;;;;;5.32;3.12;;;;;;;16.37;52.04;98645.59;4481943;31;33793;-60
2023/04/24 04:46:10;;;;;;;2.25;1.95;;;;;;;16.51;51.57;98636.75;4482466;31;35026;-60
2023/04/24 04:48:39;;;;;;;6.22;3.58;;;;;;;16.70;51.17;98633.56;4491624;31;34779;-61
2023/04/24 04:51:06;;;;;;;8.95;4.05;;;;;;;16.53;51.84;98635.56;4489557;31;33926;-61
2023/04/24 04:53:34;;;;;;;4.57;3.20;;;;;;;16.40;52.48;98637.16;4495669;31;35046;-61
2023/04/24 04:56:03;;;;;;;5.35;3.95;;;;;;;16.50;52.13;98635.91;4493543;31;32856;-61
2023/04/24 04:58:30;;;;;;;5.75;4.18;;;;;;;16.33;52.73;98642.44;4497109;31;34704;-61
2023/04/24 05:00:59;;;;;;;6.85;4.40;;;;;;;16.47;52.29;98633.56;4484803;31;33731;-61
2023/04/24 05:03:27;;;;;;;2.92;2.17;;;;;;;16.60;51.82;98640.25;4490101;31;33691;-61
2023/04/24 05:05:55;;;;;;;5.80;3.40;;;;;;;16.65;51.55;98627.03;4494741;31;34674;-61
2023/04/24 05:08:23;;;;;;;3.67;2.45;;;;;;;16.25;52.37;98629.00;4495575;31;34549;-61
2023/04/24 05:10:55;;;;;;;6.80;3.97;;;;;;;16.69;51.20;98639.13;4482982;31;33520;-61
2023/04/24 05:13:22;;;;;;;3.83;3.10;;;;;;;16.74;51.34;98634.03;4495972;31;34700;-61
2023/04/24 05:16:03;;;;;;;4.72;3.53;;;;;;;16.75;51.18;98627.63;4492585;31;33919;-61
2023/04/24 05:18:31;;;;;;;5.65;2.87;;;;;;;16.24;52.63;98640.78;4492594;31;33787;-60
2023/04/24 05:20:58;;;;;;;6.75;4.15;;;;;;;16.76;51.81;98632.03;4491118;31;33102;-60
2023/04/24 05:23:26;;;;;;;6.70;5.25;;;;;;;17.03;51.34;98633.31;4479493;31;34061;-60
2023/04/24 05:25:54;;;;;;;5.45;3.90;;;;;;;16.85;52.17;98632.78;4489220;31;33862;-61
2023/04/24 05:28:21;;;;;;;7.78;3.33;;;;;;;17.16;51.23;98632.69;4489012;31;36374;-60
2023/04/24 05:30:51;;;;;;;5.25;3.92;;;;;;;17.11;51.15;98633.25;4490101;31;35013;-60
2023/04/24 05:33:19;;;;;;;4.25;3.28;;;;;;;17.14;51.49;98635.59;4483259;31;34343;-60
2023/04/24 05:35:47;;;;;;;9.73;4.18;;;;;;;17.10;51.76;98638.84;4482141;31;35383;-60
2023/04/24 05:38:17;;;;;;;7.22;5.07;;;;;;;16.89;52.35;98636.84;4485431;31;33294;-61
2023/04/24 05:40:45;;;;;;;10.43;4.15;;;;;;;17.43;50.89;98637.50;4490684;31;34778;-61
2023/04/24 05:43:13;;;;;;;6.60;3.92;;;;;;;16.89;52.32;98634.97;4480941;31;35198;-60
2023/04/24 05:45:41;;;;;;;6.00;3.28;;;;;;;17.47;51.06;98629.84;4488443;31;33787;-60
2023/04/24 05:48:08;;;;;;;5.60;3.90;;;;;;;17.47;50.86;98624.44;4486271;31;33130;-61
2023/04/24 05:50:36;;;;;;;6.22;3.92;;;;;;;16.59;53.76;98630.44;4488079;31;33787;-60
2023/04/24 05:53:04;;;;;;;7.10;3.78;;;;;;;16.74;53.28;98634.03;4493109;31;34586;-60
2023/04/24 05:55:33;;;;;;;6.22;3.47;;;;;;;16.37;53.65;98638.38;4493294;31;34695;-60
2023/04/24 05:58:01;;;;;;;4.40;3.22;;;;;;;17.08;51.83;98646.28;4493492;31;33156;-61
2023/04/24 06:00:29;;;;;;;8.23;4.75;;;;;;;17.09;51.86;98642.56;4488950;31;33512;-61
2023/04/24 06:02:57;;;;;;;4.43;2.80;;;;;;;17.16;51.10;98641.63;4482359;31;33822;-60
2023/04/24 06:05:25;;;;;;;5.80;3.50;;;;;;;16.84;51.88;98650.88;4488878;31;34928;-60
2023/04/24 06:07:53;;;;;;;3.40;2.35;;;;;;;16.12;53.36;98648.47;4492888;31;33321;-60
2023/04/24 06:10:21;;;;;;;4.07;1.75;;;;;;;15.50;55.54;98654.56;4489639;31;31923;-61
2023/04/24 06:12:49;;;;;;;8.10;4.50;;;;;;;15.85;54.86;98652.47;4491916;31;33892;-60
2023/04/24 06:15:17;;;;;;;8.48;3.65;;;;;;;15.52;56.07;98651.72;4484815;31;33432;-61
2023/04/24 06:17:46;;;;;;;4.75;3.42;;;;;;;15.45;56.94;98656.94;4484729;31;34465;-62
2023/04/24 06:20:15;;;;;;;5.00;3.42;;;;;;;15.87;56.22;98645.03;4487951;31;33007;-60
2023/04/24 06:22:42;;;;;;;5.85;3.65;;;;;;;16.42;54.91;98646.75;4479979;31;33617;-62
2023/04/24 06:25:10;;;;;;;4.70;3.03;;;;;;;15.70;57.20;98656.94;4483532;31;33977;-61
2023/04/24 06:27:37;;;;;;;9.32;4.43;;;;;;;16.51;55.01;98648.41;4490792;31;32096;-61
2023/04/24 06:30:06;;;;;;;4.55;3.47;;;;;;;16.54;54.56;98655.31;4490997;31;34444;-61
2023/04/24 06:32:33;;;;;;;7.32;4.32;;;;;;;16.96;53.83;98638.63;4491987;31;34010;-69
2023/04/24 06:35:01;;;;;;;6.32;4.10;;;;;;;16.55;55.12;98651.56;4489326;31;34937;-70
2023/04/24 06:37:28;;;;;;;6.62;3.45;;;;;;;16.92;54.00;98652.69;4486539;31;33227;-61
2023/04/24 06:39:56;;;;;;;9.57;5.18;;;;;;;16.62;54.67;98643.59;4478125;31;32523;-65
2023/04/24 06:42:24;;;;;;;4.40;3.22;;;;;;;16.39;55.85;98644.41;4487837;31;35017;-62
2023/04/24 06:44:52;;;;;;;9.50;3.58;;;;;;;16.27;55.89;98643.97;4490445;31;34690;-61
2023/04/24 06:47:19;;;;;;;5.90;3.20;;;;;;;16.65;54.75;98641.38;4488122;31;33161;-62
2023/04/24 06:49:47;;;;;;;4.78;3.80;;;;;;;16.59;54.97;98647.47;4489201;31;33447;-61
2023/04/24 06:52:14;;;;;;;16.15;5.20;;;;;;;16.81;54.66;98645.00;4484119;31;35177;-62
2023/04/24 06:54:42;;;;;;;6.68;4.40;;;;;;;16.42;55.39;98645.94;4487368;31;33530;-61
2023/04/24 06:57:10;;;;;;;4.47;3.60;;;;;;;17.10;53.93;98642.38;4490599;31;33218;-62
2023/04/24 06:59:38;;;;;;;6.07;4.35;;;;;;;17.29;53.06;98641.00;4488005;31;33534;-66
2023/04/24 07:02:05;;;;;;;10.05;5.20;;;;;;;16.83;54.30;98640.25;4480302;31;34232;-68
2023/04/24 07:04:33;;;;;;;7.80;4.78;;;;;;;16.45;55.80;98641.00;4490951;31;33663;-61
2023/04/24 07:07:02;;;;;;;9.75;6.07;;;;;;;17.21;53.44;98633.00;4486146;31;34771;-62
2023/04/24 07:09:30;;;;;;;6.68;4.85;;;;;;;16.57;54.88;98649.53;4492158;31;34019;-62
2023/04/24 07:11:57;;;;;;;7.37;4.78;;;;;;;16.06;56.49;98636.50;4490681;31;34817;-62
2023/04/24 07:14:25;;;;;;;8.52;4.90;;;;;;;16.51;55.68;98640.28;4492429;31;33850;-62
2023/04/24 07:16:52;;;;;;;8.02;4.00;;;;;;;16.22;56.21;98640.97;4487593;31;33421;-61
2023/04/24 07:19:20;;;;;;;6.68;4.57;;;;;;;16.01;57.55;98636.19;4487014;31;33429;-61
2023/04/24 07:21:47;;;;;;;8.20;4.43;;;;;;;15.99;57.11;98623.91;4491386;31;33937;-62
2023/04/24 07:24:15;;;;;;;6.50;3.80;;;;;;;16.23;56.54;98634.56;4493177;31;32652;-61
2023/04/24 07:26:43;;;;;;;7.32;4.62;;;;;;;16.11;57.33;98627.88;4488352;31;33525;-61
2023/04/24 07:29:10;;;;;;;4.22;2.55;;;;;;;16.30;56.81;98630.13;4491793;31;33840;-61
2023/04/24 07:31:38;;;;;;;6.80;4.05;;;;;;;16.75;55.85;98624.94;4487648;31;34167;-62
2023/04/24 07:34:05;;;;;;;5.45;3.90;;;;;;;16.96;55.14;98621.56;4490265;31;32935;-62
2023/04/24 07:36:33;;;;;;;8.48;2.67;;;;;;;17.02;55.10;98623.53;4492242;31;33418;-61
2023/04/24 07:39:00;;;;;;;9.05;4.95;;;;;;;16.95;55.53;98627.97;4493727;31;34724;-61
2023/04/24 07:41:28;;;;;;;7.00;3.42;;;;;;;17.24;54.40;98627.22;4491587;31;31986;-61
2023/04/24 07:43:55;;;;;;;4.40;3.22;;;;;;;17.13;55.07;98642.00;4485851;31;32642;-61
2023/04/24 07:46:23;;;;;;;6.22;3.90;;;;;;;17.76;53.87;98636.28;4487897;31;34394;-62
2023/04/24 07:48:51;;;;;;;6.62;4.43;;;;;;;18.24;52.90;98637.53;4492075;31;32275;-62
2023/04/24 07:51:39;;;;;;;7.65;4.30;;;;;;;17.19;55.55;98633.16;4481710;31;34375;-60
2023/04/24 07:54:06;;;;;;;9.30;4.75;;;;;;;17.13;55.43;98635.75;4487382;31;33775;-61
2023/04/24 07:56:35;;;;;;;4.78;3.17;;;;;;;17.90;54.32;98636.28;4486381;31;34323;-61
2023/04/24 07:59:03;;;;;;;6.75;4.65;;;;;;;17.69;54.50;98634.31;4490774;31;33781;-62
2023/04/24 08:01:31;;;;;;;5.65;3.83;;;;;;;18.11;53.64;98634.69;4486380;31;33856;-61
2023/04/24 08:03:58;;;;;;;8.07;4.90;;;;;;;18.52;52.17;98640.34;4485823;31;35180;-61
2023/04/24 08:06:30;;;;;;;7.72;5.03;;;;;;;17.99;53.59;98631.59;4488862;31;34486;-62
2023/04/24 08:08:58;;;;;;;6.68;4.32;;;;;;;18.44;52.76;98628.78;4483816;31;35023;-62
2023/04/24 08:11:26;;;;;;;7.80;4.00;;;;;;;17.86;54.16;98632.28;4493410;31;34286;-61
2023/04/24 08:13:54;;;;;;;8.82;5.22;;;;;;;18.29;53.14;98624.25;4493523;31;34419;-61
2023/04/24 08:16:23;;;;;;;7.43;3.97;;;;;;;17.72;54.35;98630.41;4487827;31;32767;-61
2023/04/24 08:18:52;;;;;;;4.82;3.50;;;;;;;17.19;54.82;98630.47;4491129;31;34384;-62
2023/04/24 08:21:20;;;;;;;7.62;3.95;;;;;;;17.34;54.70;98629.66;4483423;31;34907;-61
2023/04/24 08:23:48;;;;;;;5.90;3.78;;;;;;;17.09;55.42;98632.59;4486135;31;31913;-62
2023/04/24 08:26:16;;;;;;;9.38;3.90;;;;;;;16.60;55.74;98629.44;4484687;31;34293;-61
2023/04/24 08:28:44;;;;;;;5.97;3.37;;;;;;;17.34;53.64;98625.06;4489824;31;34824;-60
2023/04/24 08:31:11;;;;;;;5.65;3.08;;;;;;;17.93;52.33;98625.06;4488964;31;34868;-61
2023/04/24 08:33:40;;;;;;;8.05;4.03;;;;;;;17.53;53.13;98622.81;4488639;31;33571;-61
2023/04/24 08:36:08;;;;;;;7.05;4.32;;;;;;;17.65;52.50;98619.47;4494633;31;33207;-61
2023/04/24 08:38:35;;;;;;;5.18;3.58;;;;;;;17.81;52.67;98618.47;4484695;31;33616;-60
2023/04/24 08:41:04;;;;;;;6.78;3.83;;;;;;;18.13;50.97;98624.47;4496399;31;34937;-61
2023/04/24 08:43:33;;;;;;;8.18;4.65;;;;;;;18.37;50.51;98632.25;4495784;31;34598;-60
2023/04/24 08:46:00;;;;;;;4.68;3.62;;;;;;;17.88;51.06;98629.37;4498012;31;33356;-60
2023/04/24 08:48:30;;;;;;;5.35;3.87;;;;;;;18.30;50.97;98636.78;4481427;31;32346;-61
2023/04/24 08:50:59;;;;;;;7.50;5.05;;;;;;;18.77;49.87;98632.69;4485989;31;35166;-62
2023/04/24 08:53:27;;;;;;;8.38;3.75;;;;;;;18.53;50.22;98628.47;4491912;31;33629;-61
2023/04/24 08:55:56;;;;;;;4.70;3.85;;;;;;;18.56;48.49;98629.97;4491565;31;33550;-61
2023/04/24 08:58:27;;;;;;;4.78;3.35;;;;;;;19.07;48.49;98625.25;4499333;31;33929;-62
2023/04/24 09:00:55;;;;;;;7.03;5.87;;;;;;;19.30;48.56;98627.72;4489520;31;32688;-61
2023/04/24 09:03:23;;;;;;;7.72;4.80;;;;;;;19.03;49.00;98623.94;4488050;31;34717;-62
2023/04/24 09:05:52;;;;;;;5.12;3.30;;;;;;;19.46;47.85;98620.31;4492245;31;34584;-61
2023/04/24 09:08:23;;;;;;;7.30;4.45;;;;;;;19.45;47.04;98622.16;4486907;31;34508;-64
2023/04/24 09:10:50;;;;;;;6.00;3.70;;;;;;;19.16;47.58;98620.50;4482871;31;33759;-62
2023/04/24 09:13:19;;;;;;;6.55;4.30;;;;;;;19.53;47.38;98619.31;4485961;31;34103;-62
2023/04/24 09:15:47;;;;;;;8.40;4.18;;;;;;;19.30;47.53;98616.88;4484256;31;33683;-62
2023/04/24 09:18:15;;;;;;;6.55;5.03;;;;;;;18.74;48.51;98615.97;4488092;31;33835;-61
2023/04/24 09:21:03;;;;;;;7.65;5.03;;;;;;;19.14;48.62;98611.75;4495425;31;33925;-61
2023/04/24 09:23:31;;;;;;;6.75;4.12;;;;;;;20.12;45.47;98611.66;4497740;31;32345;-62
2023/04/24 09:26:00;;;;;;;8.35;4.90;;;;;;;20.21;45.78;98615.88;4500924;31;33091;-62
2023/04/24 09:28:32;;;;;;;6.47;3.47;;;;;;;19.81;46.53;98613.03;4493071;31;34984;-62
2023/04/24 09:31:18;;;;;;;8.73;5.05;;;;;;;19.60;46.21;98607.66;4489099;31;32969;-62
2023/04/24 09:34:05;;;;;;;7.60;5.40;;;;;;;18.90;47.68;98612.16;4493990;31;34776;-62
2023/04/24 09:36:37;;;;;;;6.55;4.32;;;;;;;19.38;47.72;98610.44;4487362;31;32873;-65
2023/04/24 09:39:16;;;;;;;7.00;5.25;;;;;;;19.31;48.13;98596.81;4488162;31;34122;-62
2023/04/24 09:41:51;;;;;;;10.57;4.80;;;;;;;18.98;48.94;98612.03;4494056;31;34080;-62
2023/04/24 09:44:22;;;;;;;5.17;3.70;;;;;;;18.29;50.50;98599.88;4500427;31;33803;-61
2023/04/24 09:46:57;;;;;;;10.23;5.87;;;;;;;19.29;48.96;98598.91;4492026;31;34764;-61
2023/04/24 09:49:26;;;;;;;8.10;4.57;;;;;;;18.86;50.21;98600.88;4489754;31;33808;-62
2023/04/24 09:52:04;;;;;;;7.62;4.75;;;;;;;19.44;48.77;98590.66;4485924;31;34069;-63
2023/04/24 09:54:31;;;;;;;7.12;5.03;;;;;;;19.21;48.62;98603.66;4494211;31;33665;-61
2023/04/24 09:57:02;;;;;;;7.97;4.45;;;;;;;19.58;46.45;98586.13;4491462;31;33218;-61
2023/04/24 09:59:30;;;;;;;8.98;5.57;;;;;;;19.18;47.15;98598.63;4490682;31;33145;-61
2023/04/24 10:01:59;;;;;;;6.85;4.47;;;;;;;19.18;47.68;98596.75;4494796;31;34244;-61
2023/04/24 10:04:28;;;;;;;9.82;5.12;;;;;;;19.64;47.05;98587.22;4497010;31;34136;-62
2023/04/24 10:06:57;;;;;;;7.80;4.32;;;;;;;19.30;48.16;98597.87;4485901;31;33575;-63
2023/04/24 10:09:26;;;;;;;7.03;4.22;;;;;;;19.23;47.86;98594.28;4490308;31;34981;-62
2023/04/24 10:11:54;;;;;;;10.38;4.45;;;;;;;20.03;45.50;98594.72;4497681;31;34962;-63
2023/04/24 10:14:24;;;;;;;8.20;5.28;;;;;;;20.25;45.82;98590.81;4490772;31;34758;-63
2023/04/24 10:16:54;;;;;;;8.65;5.25;;;;;;;20.13;46.07;98597.06;4486386;31;33456;-62
2023/04/24 10:19:25;;;;;;;9.52;5.40;;;;;;;18.51;49.22;98613.44;4490841;31;34126;-62
2023/04/24 10:21:55;;;;;;;7.03;4.62;;;;;;;18.87;48.43;98593.56;4499393;31;34323;-62
2023/04/24 10:24:23;;;;;;;11.05;6.03;;;;;;;19.50;46.93;98591.72;4493081;31;32734;-62
2023/04/24 10:26:50;;;;;;;9.57;5.10;;;;;;;19.50;47.37;98594.44;4487872;31;33388;-63
2023/04/24 10:29:18;;;;;;;11.43;5.45;;;;;;;19.30;47.78;98591.63;4481130;31;34012;-63
2023/04/24 10:31:46;;;;;;;9.95;4.62;;;;;;;18.89;48.48;98588.81;4491100;31;33958;-67
2023/04/24 10:34:16;;;;;;;6.97;3.92;;;;;;;18.96;48.58;98585.09;4490677;31;35531;-61
2023/04/24 10:36:53;;;;;;;12.37;5.47;;;;;;;18.27;50.38;98583.00;4492823;31;33191;-62
2023/04/24 10:39:24;;;;;;;8.07;4.57;;;;;;;18.71;48.57;98584.63;4486971;31;33843;-64
2023/04/24 10:41:57;;;;;;;6.35;5.18;;;;;;;18.96;48.69;98587.81;4484251;31;34212;-64
2023/04/24 10:44:25;;;;;;;6.70;4.00;;;;;;;19.49;47.19;98581.91;4486396;31;34091;-63
2023/04/24 10:46:55;;;;;;;11.70;4.07;;;;;;;19.00;48.33;98583.66;4494959;31;34165;-63
2023/04/24 10:49:30;;;;;;;6.47;4.47;;;;;;;19.03;48.18;98587.84;4495142;31;33950;-64
2023/04/24 10:52:04;;;;;;;5.93;4.30;;;;;;;19.32;47.57;98581.38;4498395;31;34157;-64
2023/04/24 10:54:44;;;;;;;8.98;5.62;;;;;;;19.38;47.66;98580.59;4490818;31;33922;-64
2023/04/24 10:57:18;;;;;;;9.70;4.97;;;;;;;18.98;48.62;98568.66;4497287;31;33553;-64
2023/04/24 10:59:46;;;;;;;5.95;3.97;;;;;;;19.31;48.49;98568.87;4498899;31;34454;-63
2023/04/24 11:02:15;;;;;;;9.73;4.93;;;;;;;20.05;47.56;98556.50;4496752;31;34930;-64
2023/04/24 11:04:43;;;;;;;5.55;3.08;;;;;;;19.98;47.92;98564.62;4493280;31;33619;-63
2023/04/24 11:07:11;;;;;;;9.02;2.72;;;;;;;20.09;45.27;98552.31;4495665;31;33528;-63
2023/04/24 11:09:42;;;;;;;4.97;2.97;;;;;;;19.59;44.37;98555.25;4488079;31;33622;-64
2023/04/24 11:12:11;;;;;;;11.55;2.70;;;;;;;19.58;44.59;98550.84;4484257;31;33788;-63
2023/04/24 11:14:57;;;;;;;4.43;2.78;;;;;;;19.40;44.95;98554.09;4489178;31;33930;-63
2023/04/24 11:17:31;;;;;;;4.47;2.58;;;;;;;19.15;46.03;98559.16;4493576;31;33352;-63
2023/04/24 11:20:11;;;;;;;3.58;2.37;;;;;;;19.12;44.76;98554.13;4498110;31;32635;-62
2023/04/24 11:22:55;;;;;;;2.95;1.77;;;;;;;18.74;45.92;98549.06;4488228;31;34606;-63
2023/04/24 11:25:23;;;;;;;5.05;2.05;;;;;;;19.26;45.12;98549.62;4497544;31;34016;-64
2023/04/24 11:28:03;;;;;;;3.60;2.42;;;;;;;19.34;44.41;98549.47;4484896;31;31588;-62
2023/04/24 11:30:36;;;;;;;3.45;1.67;;;;;;;19.48;44.37;98543.06;4488348;31;35433;-64
2023/04/24 11:33:04;;;;;;;6.53;1.87;;;;;;;19.86;43.96;98544.53;4494362;31;34076;-65
2023/04/24 11:35:39;;;;;;;2.70;1.95;;;;;;;20.11;43.57;98542.94;4498099;31;34357;-64
2023/04/24 11:38:07;;;;;;;4.72;2.67;;;;;;;20.08;43.75;98546.06;4491735;31;33177;-65
2023/04/24 11:40:52;;;;;;;4.25;2.60;;;;;;;20.13;43.29;98540.03;4495704;31;33756;-65
2023/04/24 11:43:19;;;;;;;5.43;2.62;;;;;;;20.86;41.88;98524.63;4492467;31;33498;-65